Time;durP1;ratioP1;P1;durP2;ratioP2;P2;SDS_P1;SDS_P2;PMS_P1;PMS_P2;Temp;Humidity;BMP_temperature;BMP_pressure;BME280_temperature;BME280_humidity;BME280_pressure;Samples;Min_cycle;Max_cycle;Signal;HPM_P1;HPM_P2
2022/10/28 00:01:19;;;;;;;20.63;16.70;;;;;;;9.97;92.88;101484.20;1826902;78;21429;-72
2022/10/28 00:03:50;;;;;;;24.30;18.93;;;;;;;9.96;93.31;101474.17;1825388;78;20983;-74
2022/10/28 00:06:25;;;;;;;24.57;17.83;;;;;;;9.98;93.65;101477.64;1826842;78;21421;-72
2022/10/28 00:08:53;;;;;;;24.10;18.00;;;;;;;9.98;93.64;101477.64;1826831;78;20998;-72
2022/10/28 00:11:28;;;;;;;25.17;18.97;;;;;;;10.00;93.70;101473.66;1826900;78;21011;-72
2022/10/28 00:13:58;;;;;;;25.57;18.77;;;;;;;9.99;93.96;101471.49;1826601;78;21103;-73
2022/10/28 00:16:28;;;;;;;;;;;;;;;10.02;93.98;101471.89;1829722;78;21018;-72
2022/10/28 00:18:58;;;;;;;21.73;16.62;;;;;;;9.97;93.25;101468.03;1826795;78;20392;-76
2022/10/28 00:21:30;;;;;;;22.73;16.93;;;;;;;9.93;93.15;101465.51;1826599;78;20999;-72
2022/10/28 00:23:58;;;;;;;21.33;15.67;;;;;;;9.87;92.91;101463.86;1826608;78;21580;-72
2022/10/28 00:26:29;;;;;;;26.77;19.23;;;;;;;9.84;92.79;101466.53;1826566;78;21132;-72
2022/10/28 00:29:00;;;;;;;29.93;21.17;;;;;;;9.81;93.39;101467.45;1826630;78;21022;-72
2022/10/28 00:31:30;;;;;;;29.13;21.30;;;;;;;9.91;94.75;101462.05;1826602;78;21000;-72
2022/10/28 00:34:03;;;;;;;28.23;21.80;;;;;;;10.01;95.26;101461.00;1826629;78;20972;-72
2022/10/28 00:36:34;;;;;;;26.83;21.27;;;;;;;10.10;95.69;101452.97;1826702;78;20991;-72
2022/10/28 00:39:05;;;;;;;31.43;22.57;;;;;;;10.14;95.54;101449.42;1826607;78;21080;-72
2022/10/28 00:41:37;;;;;;;30.07;22.60;;;;;;;10.22;96.14;101446.17;1826707;78;20980;-72
2022/10/28 00:44:53;;;;;;;28.07;22.77;;;;;;;10.31;96.39;101446.93;1826959;78;20915;-72
2022/10/28 00:47:40;;;;;;;29.73;23.13;;;;;;;10.37;96.32;101443.77;1826879;78;21046;-72
2022/10/28 00:50:24;;;;;;;32.50;23.27;;;;;;;10.46;96.51;101438.78;1827713;78;21039;-72
2022/10/28 00:52:56;;;;;;;29.57;22.77;;;;;;;10.51;96.52;101426.45;1829103;78;21097;-72
2022/10/28 00:55:24;;;;;;;37.53;24.30;;;;;;;10.56;96.44;101421.09;1828834;78;21527;-72
2022/10/28 00:57:55;;;;;;;30.13;22.43;;;;;;;10.61;96.65;101421.87;1829192;78;20979;-72
2022/10/28 01:00:24;;;;;;;31.33;23.63;;;;;;;10.68;96.77;101419.09;1828918;78;21562;-72
2022/10/28 01:02:51;;;;;;;28.97;22.80;;;;;;;10.74;96.92;101418.55;1829219;78;21027;-72
2022/10/28 01:05:23;;;;;;;30.83;23.33;;;;;;;10.82;96.99;101424.50;1828893;78;21516;-72
2022/10/28 01:07:52;;;;;;;29.73;23.07;;;;;;;10.88;97.02;101422.59;1829249;78;20991;-72
2022/10/28 01:10:23;;;;;;;34.15;24.07;;;;;;;10.94;96.95;101420.28;1829031;78;21459;-72
2022/10/28 01:13:05;;;;;;;31.53;23.67;;;;;;;10.99;96.99;101416.25;1829506;78;20979;-78
2022/10/28 01:15:52;;;;;;;28.83;22.23;;;;;;;11.02;96.75;101411.80;1828905;78;21590;-72
2022/10/28 01:18:34;;;;;;;28.85;22.13;;;;;;;11.04;96.52;101416.56;1827966;78;21053;-72
2022/10/28 01:21:44;;;;;;;27.47;21.43;;;;;;;11.06;96.56;101412.16;1828902;78;21424;-72
2022/10/28 01:24:29;;;;;;;29.30;21.23;;;;;;;11.09;96.58;101410.77;1829342;78;21409;-72
2022/10/28 01:27:19;;;;;;;27.47;21.40;;;;;;;11.12;96.71;101398.88;1828984;78;21026;-72
2022/10/28 01:30:15;;;;;;;28.27;21.15;;;;;;;11.13;96.47;101402.37;1829325;78;21050;-72
2022/10/28 01:33:09;;;;;;;30.35;21.87;;;;;;;11.13;96.51;101395.35;1829079;78;21456;-72
2022/10/28 01:35:59;;;;;;;29.37;22.07;;;;;;;11.15;96.66;101394.88;1829292;78;21441;-72
2022/10/28 01:38:57;;;;;;;28.57;21.30;;;;;;;11.18;96.64;101395.71;1829036;78;21003;-72
2022/10/28 01:41:35;;;;;;;30.70;22.05;;;;;;;11.19;96.78;101396.97;1829230;78;21251;-72
2022/10/28 01:44:08;;;;;;;26.27;21.70;;;;;;;11.22;96.84;101395.58;1828922;78;21229;-72
2022/10/28 01:46:40;;;;;;;32.05;21.85;;;;;;;11.25;96.92;101394.65;1829326;78;21093;-72
2022/10/28 01:49:19;;;;;;;29.00;21.23;;;;;;;11.26;96.76;101387.20;1828979;78;21349;-72
2022/10/28 01:51:49;;;;;;;24.92;20.85;;;;;;;11.25;96.47;101392.91;1828709;78;20984;-72
2022/10/28 01:54:21;;;;;;;27.75;19.75;;;;;;;11.24;96.32;101396.41;1828969;78;20979;-72
2022/10/28 01:56:51;;;;;;;27.20;19.55;;;;;;;11.22;95.91;101395.58;1828973;78;21007;-72
2022/10/28 01:59:25;;;;;;;25.50;18.77;;;;;;;11.18;95.48;101403.13;1829111;78;21500;-72
2022/10/28 02:01:54;;;;;;;22.65;18.60;;;;;;;11.11;95.14;101392.34;1829069;78;21003;-72
2022/10/28 02:04:21;;;;;;;22.05;18.82;;;;;;;11.01;94.71;101390.41;1828866;78;20971;-72
2022/10/28 02:06:53;;;;;;;24.32;18.65;;;;;;;10.92;94.69;101393.25;1829054;78;21049;-77
2022/10/28 02:09:54;;;;;;;23.07;18.32;;;;;;;10.85;94.52;101387.70;1829330;78;21504;-72
2022/10/28 02:12:26;;;;;;;23.47;18.33;;;;;;;10.78;94.39;101384.38;1829358;78;21426;-72
2022/10/28 02:15:17;;;;;;;23.87;17.63;;;;;;;10.70;94.31;101385.84;1828997;78;21009;-72
2022/10/28 02:17:58;;;;;;;22.82;17.37;;;;;;;10.63;94.21;101385.55;1829029;78;21034;-71
2022/10/28 02:20:40;;;;;;;19.97;16.40;;;;;;;10.57;94.29;101384.38;1829340;78;20888;-72
2022/10/28 02:23:13;;;;;;;19.63;15.70;;;;;;;10.49;93.79;101379.74;1824545;78;20959;-73
2022/10/28 02:25:54;;;;;;;22.00;15.90;;;;;;;10.41;93.58;101381.20;1828854;78;21202;-72
2022/10/28 02:28:41;;;;;;;18.42;15.55;;;;;;;10.32;93.30;101384.48;1828975;78;20967;-72
2022/10/28 02:31:29;;;;;;;19.80;14.13;;;;;;;10.23;93.03;101382.87;1828422;78;20999;-72
2022/10/28 02:34:05;;;;;;;22.47;16.93;;;;;;;10.17;93.34;101379.94;1828852;78;20994;-72
2022/10/28 02:36:37;;;;;;;19.90;15.40;;;;;;;10.12;93.61;101380.47;1829327;78;20998;-72
2022/10/28 02:39:06;;;;;;;20.83;15.57;;;;;;;10.04;93.19;101379.75;1829077;78;21107;-72
2022/10/28 02:41:47;;;;;;;21.40;15.25;;;;;;;9.98;93.26;101370.25;1829307;78;20994;-72
2022/10/28 02:44:20;;;;;;;20.33;15.27;;;;;;;9.93;93.37;101374.70;1828742;78;20987;-72
2022/10/28 02:46:49;;;;;;;18.70;14.33;;;;;;;9.89;93.29;101370.85;1829180;78;20951;-72
2022/10/28 02:49:16;;;;;;;20.47;16.73;;;;;;;9.83;93.17;101367.91;1828934;78;21543;-72
2022/10/28 02:51:49;;;;;;;21.23;15.57;;;;;;;9.78;93.55;101365.39;1828702;78;21079;-72
2022/10/28 02:54:22;;;;;;;21.20;16.50;;;;;;;9.75;93.64;101367.18;1828933;78;20987;-73
2022/10/28 02:57:03;;;;;;;22.00;17.63;;;;;;;9.75;94.02;101365.87;1829349;78;21011;-72
2022/10/28 02:59:30;;;;;;;26.20;18.93;;;;;;;9.73;94.30;101363.75;1828874;78;21038;-73
2022/10/28 03:01:57;;;;;;;26.63;19.97;;;;;;;9.76;94.87;101368.92;1829252;78;20944;-73
2022/10/28 03:04:24;;;;;;;20.80;17.30;;;;;;;9.76;94.94;101367.62;1828906;78;21087;-73
2022/10/28 03:06:52;;;;;;;23.67;18.77;;;;;;;9.78;95.07;101370.62;1828735;78;20963;-72
2022/10/28 03:09:19;;;;;;;29.27;19.37;;;;;;;9.78;95.39;101365.39;1828821;78;21101;-73
2022/10/28 03:11:47;;;;;;;25.90;19.90;;;;;;;9.77;95.38;101367.57;1828780;78;20994;-73
2022/10/28 03:14:14;;;;;;;24.80;18.80;;;;;;;9.78;95.62;101359.27;1828888;78;21513;-73
2022/10/28 03:16:42;;;;;;;24.23;17.83;;;;;;;9.78;95.56;101356.64;1828785;78;21109;-73
2022/10/28 03:19:09;;;;;;;25.93;19.73;;;;;;;9.79;95.56;101361.02;1829121;78;21430;-73
2022/10/28 03:21:36;;;;;;;27.23;19.83;;;;;;;9.80;96.06;101360.97;1829150;78;20995;-73
2022/10/28 03:24:04;;;;;;;25.80;20.30;;;;;;;9.82;96.15;101347.41;1828893;78;20963;-72
2022/10/28 03:26:32;;;;;;;23.47;18.93;;;;;;;9.85;96.13;101358.27;1829169;78;21535;-73
2022/10/28 03:29:00;;;;;;;26.87;20.40;;;;;;;9.87;96.27;101354.33;1828865;78;21103;-73
2022/10/28 03:31:27;;;;;;;24.57;19.00;;;;;;;9.88;96.21;101352.12;1829098;78;20979;-73
2022/10/28 03:33:54;;;;;;;24.93;19.47;;;;;;;9.89;95.95;101356.45;1828767;78;20984;-72
2022/10/28 03:36:21;;;;;;;24.37;18.13;;;;;;;9.89;96.19;101353.83;1828882;78;20972;-73
2022/10/28 03:38:48;;;;;;;26.03;20.10;;;;;;;9.91;96.37;101351.61;1829166;78;21248;-72
2022/10/28 03:41:16;;;;;;;24.80;18.93;;;;;;;9.93;96.49;101349.83;1828894;78;21250;-73
2022/10/28 03:43:43;;;;;;;27.03;19.17;;;;;;;9.96;96.53;101347.15;1829066;78;21475;-73
2022/10/28 03:46:11;;;;;;;25.97;20.23;;;;;;;10.00;96.85;101347.94;1828755;78;21440;-73
2022/10/28 03:48:38;;;;;;;22.07;18.17;;;;;;;10.03;96.85;101344.84;1829052;78;20991;-72
2022/10/28 03:51:05;;;;;;;24.07;18.50;;;;;;;10.02;96.44;101343.09;1828823;78;21026;-73
2022/10/28 03:53:32;;;;;;;23.20;18.20;;;;;;;9.99;96.08;101344.47;1828787;78;21115;-72
2022/10/28 03:56:01;;;;;;;23.77;18.73;;;;;;;10.01;96.49;101344.45;1828698;78;20956;-73
2022/10/28 03:58:29;;;;;;;25.07;19.50;;;;;;;10.01;96.58;101344.45;1828811;78;21050;-73
2022/10/28 04:00:57;;;;;;;27.57;20.47;;;;;;;10.04;96.77;101347.01;1828805;78;21016;-73
2022/10/28 04:03:25;;;;;;;26.50;19.33;;;;;;;10.07;97.15;101340.39;1829094;78;21469;-73
2022/10/28 04:05:52;;;;;;;23.83;18.50;;;;;;;10.11;97.03;101341.19;1828844;78;21067;-72
2022/10/28 04:08:20;;;;;;;24.03;19.00;;;;;;;10.11;96.84;101342.50;1829083;78;20952;-73
2022/10/28 04:10:49;;;;;;;24.57;18.97;;;;;;;10.11;96.83;101341.19;1828718;78;20972;-73
2022/10/28 04:13:16;;;;;;;23.43;19.07;;;;;;;10.11;96.85;101343.35;1829041;78;22034;-73
2022/10/28 04:15:44;;;;;;;23.40;18.47;;;;;;;10.05;96.49;101333.86;1828943;78;20971;-73
2022/10/28 04:18:12;;;;;;;26.57;19.53;;;;;;;10.05;96.64;101334.31;1829152;78;21047;-73
2022/10/28 04:20:39;;;;;;;25.00;19.37;;;;;;;10.03;96.58;101339.60;1828749;78;21050;-73
2022/10/28 04:23:07;;;;;;;24.93;19.30;;;;;;;10.07;97.20;101339.53;1828702;78;20986;-73
2022/10/28 04:25:34;;;;;;;23.70;19.33;;;;;;;10.08;97.34;101343.41;1829119;78;20985;-72
2022/10/28 04:28:01;;;;;;;25.10;19.07;;;;;;;10.11;97.49;101343.35;1829202;78;21015;-73
2022/10/28 04:30:29;;;;;;;26.50;19.40;;;;;;;10.14;97.70;101340.70;1828816;78;21185;-74
2022/10/28 04:32:56;;;;;;;27.90;19.47;;;;;;;10.17;97.79;101342.36;1828953;78;20983;-73
2022/10/28 04:35:24;;;;;;;26.90;19.80;;;;;;;10.18;97.59;101341.03;1829146;78;21527;-72
2022/10/28 04:37:52;;;;;;;27.47;19.67;;;;;;;10.19;97.58;101339.27;1828757;78;21011;-73
2022/10/28 04:40:19;;;;;;;22.73;17.57;;;;;;;10.17;97.40;101335.39;1829042;78;21034;-73
2022/10/28 04:42:46;;;;;;;23.23;19.10;;;;;;;10.14;97.17;101338.08;1828800;78;21107;-73
2022/10/28 04:45:14;;;;;;;25.60;18.70;;;;;;;10.12;97.14;101333.31;1828990;78;20983;-72
2022/10/28 04:47:41;;;;;;;23.43;18.47;;;;;;;10.08;96.87;101332.08;1828761;78;20940;-73
2022/10/28 04:50:09;;;;;;;23.10;18.33;;;;;;;10.02;96.87;101327.83;1829053;78;21002;-73
2022/10/28 04:52:36;;;;;;;22.37;17.80;;;;;;;10.01;97.08;101328.73;1830773;78;20991;-73
2022/10/28 04:55:06;;;;;;;25.17;18.57;;;;;;;10.03;97.33;101321.69;1831695;78;21963;-73
2022/10/28 04:57:33;;;;;;;26.77;19.62;;;;;;;10.02;97.48;101318.21;1831935;78;20986;-73
2022/10/28 05:00:01;;;;;;;26.53;19.30;;;;;;;10.05;97.75;101308.98;1832093;78;21007;-73
2022/10/28 05:02:28;;;;;;;25.10;19.57;;;;;;;10.08;97.75;101304.58;1831810;78;20983;-73
2022/10/28 05:04:59;;;;;;;26.03;19.87;;;;;;;10.09;97.77;101308.91;1831814;78;21346;-73
2022/10/28 05:07:25;;;;;;;27.53;19.07;;;;;;;10.11;97.84;101308.44;1831720;78;21113;-72
2022/10/28 05:09:52;;;;;;;24.50;19.90;;;;;;;10.14;98.05;101302.71;1832076;78;20983;-73
2022/10/28 05:12:19;;;;;;;28.30;21.03;;;;;;;10.17;98.16;101303.95;1831794;78;20967;-73
2022/10/28 05:14:47;;;;;;;24.17;19.27;;;;;;;10.20;98.29;101299.95;1832266;78;20915;-73
2022/10/28 05:17:14;;;;;;;25.60;20.20;;;;;;;10.25;98.54;101298.53;1831812;78;21321;-73
2022/10/28 05:19:44;;;;;;;26.20;19.33;;;;;;;10.30;98.73;101290.16;1832173;78;21070;-73
2022/10/28 05:22:13;;;;;;;23.97;19.30;;;;;;;10.36;98.82;101292.64;1831785;78;21022;-73
2022/10/28 05:24:40;;;;;;;22.48;19.37;;;;;;;10.39;98.74;101293.91;1831918;78;20987;-73
2022/10/28 05:27:07;;;;;;;25.03;19.50;;;;;;;10.42;98.60;101294.27;1832071;78;21548;-73
2022/10/28 05:29:34;;;;;;;25.87;18.60;;;;;;;10.46;98.64;101290.70;1832037;78;21560;-73
2022/10/28 05:32:01;;;;;;;25.77;19.00;;;;;;;10.49;98.63;101294.55;1831761;78;21147;-73
2022/10/28 05:34:29;;;;;;;23.23;18.20;;;;;;;10.50;98.51;101297.58;1831712;78;21437;-73
2022/10/28 05:36:56;;;;;;;23.70;19.33;;;;;;;10.51;98.34;101294.08;1831748;78;21011;-73
2022/10/28 05:39:24;;;;;;;23.53;18.07;;;;;;;10.49;98.18;101290.17;1831966;78;20990;-74
2022/10/28 05:41:51;;;;;;;22.60;17.53;;;;;;;10.49;98.20;101292.79;1831824;78;21041;-72
2022/10/28 05:44:21;;;;;;;23.37;19.10;;;;;;;10.48;98.06;101288.91;1831798;78;21908;-73
2022/10/28 05:46:49;;;;;;;20.90;16.77;;;;;;;10.47;98.25;101291.98;1831725;78;20991;-73
2022/10/28 05:49:19;;;;;;;22.63;17.43;;;;;;;10.49;98.36;101292.79;1831768;78;21002;-73
2022/10/28 05:51:46;;;;;;;20.20;17.47;;;;;;;10.53;98.43;101292.30;1830674;78;20951;-73
2022/10/28 05:54:13;;;;;;;24.63;18.77;;;;;;;10.55;98.52;101283.92;1826545;78;20995;-73
2022/10/28 05:56:40;;;;;;;19.60;16.87;;;;;;;10.58;98.43;101290.41;1826690;78;21071;-73
2022/10/28 05:59:07;;;;;;;21.03;17.07;;;;;;;10.59;98.33;101288.67;1826574;78;21004;-73
2022/10/28 06:01:35;;;;;;;25.35;18.00;;;;;;;10.61;98.37;101294.72;1826644;78;21030;-73
2022/10/28 06:04:03;;;;;;;21.93;17.70;;;;;;;10.62;98.34;101292.53;1826520;78;21464;-73
2022/10/28 06:06:31;;;;;;;24.80;18.00;;;;;;;10.63;98.30;101291.16;1827046;78;20995;-73
2022/10/28 06:08:58;;;;;;;22.23;17.43;;;;;;;10.66;98.32;101298.95;1826611;78;21075;-73
2022/10/28 06:11:26;;;;;;;23.53;18.27;;;;;;;10.68;98.37;101302.41;1826409;78;21357;-73
2022/10/28 06:13:53;;;;;;;20.37;16.70;;;;;;;10.71;98.42;101298.41;1826478;78;21039;-73
2022/10/28 06:16:21;;;;;;;20.50;16.63;;;;;;;10.76;98.42;101300.94;1826742;78;21002;-73
2022/10/28 06:18:48;;;;;;;20.17;16.30;;;;;;;10.79;98.46;101296.92;1826923;78;20998;-73
2022/10/28 06:21:15;;;;;;;21.63;16.60;;;;;;;10.84;98.50;101301.62;1826794;78;21916;-73
2022/10/28 06:23:43;;;;;;;21.97;17.25;;;;;;;10.90;98.55;101301.46;1826378;78;21003;-73
2022/10/28 06:26:10;;;;;;;21.67;16.93;;;;;;;10.96;98.56;101308.33;1827040;78;20979;-73
2022/10/28 06:28:37;;;;;;;20.48;16.40;;;;;;;11.01;98.44;101317.41;1827077;78;21414;-73
2022/10/28 06:31:08;;;;;;;19.77;16.65;;;;;;;11.03;98.32;101311.64;1826837;78;20983;-73
2022/10/28 06:33:35;;;;;;;19.30;15.93;;;;;;;11.05;98.21;101311.17;1826684;78;21815;-73
2022/10/28 06:36:04;;;;;;;19.60;15.80;;;;;;;11.06;98.18;101308.52;1826793;78;21042;-73
2022/10/28 06:38:31;;;;;;;19.30;16.27;;;;;;;11.08;98.21;101310.63;1826546;78;21480;-73
2022/10/28 06:40:59;;;;;;;19.07;14.78;;;;;;;11.13;98.18;101315.78;1826582;78;20987;-73
2022/10/28 06:43:26;;;;;;;19.73;16.12;;;;;;;11.15;98.16;101313.53;1826626;78;21003;-73
2022/10/28 06:45:55;;;;;;;20.02;15.15;;;;;;;11.18;98.13;101311.73;1826645;78;21117;-73
2022/10/28 06:48:24;;;;;;;20.75;15.45;;;;;;;11.21;98.08;101307.27;1826369;78;21467;-73
2022/10/28 06:50:53;;;;;;;22.60;15.80;;;;;;;11.23;98.03;101310.72;1826630;78;20942;-73
2022/10/28 06:53:20;;;;;;;23.60;16.65;;;;;;;11.26;98.08;101315.89;1827049;77;21231;-73
2022/10/28 06:55:56;;;;;;;22.55;15.35;;;;;;;11.29;98.11;101321.52;1828887;78;20995;-74
2022/10/28 06:58:24;;;;;;;19.12;15.05;;;;;;;11.34;98.16;101327.52;1828814;78;21176;-73
2022/10/28 07:00:54;;;;;;;20.25;15.08;;;;;;;11.41;98.34;101325.58;1828875;78;21043;-73
2022/10/28 07:03:21;;;;;;;18.82;14.80;;;;;;;11.46;98.45;101321.94;1828997;78;20990;-73
2022/10/28 07:05:50;;;;;;;18.80;14.07;;;;;;;11.53;98.61;101327.91;1828812;78;20999;-73
2022/10/28 07:08:17;;;;;;;17.60;13.30;;;;;;;11.59;98.64;101325.97;1829204;78;20967;-73
2022/10/28 07:10:46;;;;;;;20.08;15.00;;;;;;;11.68;98.69;101335.83;1828870;78;21117;-73
2022/10/28 07:13:13;;;;;;;18.77;14.63;;;;;;;11.74;98.62;101333.02;1825893;78;21460;-73
2022/10/28 07:15:40;;;;;;;21.80;14.95;;;;;;;11.77;98.25;101332.48;1829214;78;21514;-73
2022/10/28 07:18:08;;;;;;;19.10;14.43;;;;;;;11.79;97.97;101330.69;1829276;78;20983;-73
2022/10/28 07:20:36;;;;;;;22.30;14.20;;;;;;;11.81;97.70;101333.28;1828909;78;21407;-73
2022/10/28 07:23:03;;;;;;;20.10;14.20;;;;;;;11.83;97.72;101329.71;1828734;78;21131;-74
2022/10/28 07:25:31;;;;;;;16.60;13.85;;;;;;;11.86;97.70;101327.48;1829153;78;21022;-74
2022/10/28 07:27:59;;;;;;;17.00;13.78;;;;;;;11.89;97.65;101333.08;1828760;78;21488;-73
2022/10/28 07:30:28;;;;;;;20.00;14.65;;;;;;;11.93;97.53;101338.67;1829089;78;20984;-73
2022/10/28 07:32:59;;;;;;;17.55;13.78;;;;;;;11.95;97.32;101344.77;1829182;78;20964;-73
2022/10/28 07:35:25;;;;;;;18.55;13.98;;;;;;;11.99;97.42;101349.02;1828603;78;22029;-73
2022/10/28 07:37:52;;;;;;;18.80;13.68;;;;;;;12.03;97.47;101347.58;1829079;78;21535;-73
2022/10/28 07:40:21;;;;;;;17.90;14.43;;;;;;;12.09;97.39;101343.06;1829040;78;21038;-73
2022/10/28 07:42:48;;;;;;;16.83;14.07;;;;;;;12.14;97.35;101350.34;1828771;78;21000;-73
2022/10/28 07:45:16;;;;;;;17.67;13.78;;;;;;;12.20;97.36;101351.05;1829076;78;21460;-73
2022/10/28 07:47:44;;;;;;;16.60;13.55;;;;;;;12.27;97.57;101350.41;1829137;78;21088;-73
2022/10/28 07:50:12;;;;;;;17.17;13.78;;;;;;;12.35;97.51;101345.78;1828741;78;20964;-73
2022/10/28 07:52:39;;;;;;;19.65;13.62;;;;;;;12.40;97.53;101350.45;1828919;78;21476;-73
2022/10/28 07:55:07;;;;;;;16.40;13.08;;;;;;;12.48;97.52;101343.20;1828874;78;21006;-73
2022/10/28 07:57:34;;;;;;;16.87;14.47;;;;;;;12.56;97.48;101343.44;1828774;78;20975;-73
2022/10/28 08:00:04;;;;;;;16.02;13.62;;;;;;;12.63;97.44;101347.59;1828864;78;22063;-73
2022/10/28 08:02:34;;;;;;;17.32;13.90;;;;;;;12.70;97.32;101347.36;1828054;78;22010;-74
2022/10/28 08:05:01;;;;;;;19.55;13.72;;;;;;;12.80;97.24;101351.87;1828866;78;21445;-73
2022/10/28 08:07:30;;;;;;;15.72;12.65;;;;;;;12.91;97.14;101347.59;1828833;78;20960;-73
2022/10/28 08:09:58;;;;;;;17.52;14.43;;;;;;;13.03;97.25;101341.10;1829105;78;20994;-74
2022/10/28 08:12:27;;;;;;;14.75;13.18;;;;;;;13.16;97.02;101334.50;1828742;78;21314;-73
2022/10/28 08:14:55;;;;;;;18.30;13.13;;;;;;;13.24;96.97;101333.80;1829056;78;20995;-78
2022/10/28 08:17:22;;;;;;;14.20;12.75;;;;;;;13.37;97.16;101327.70;1828733;78;20991;-73
2022/10/28 08:19:50;;;;;;;16.05;12.75;;;;;;;13.51;97.04;101329.88;1829029;78;21442;-73
2022/10/28 08:22:17;;;;;;;16.48;12.60;;;;;;;13.64;96.98;101327.69;1828864;78;21034;-73
2022/10/28 08:24:44;;;;;;;19.60;12.53;;;;;;;13.76;96.94;101321.51;1829016;78;21089;-74
2022/10/28 08:27:12;;;;;;;14.95;11.75;;;;;;;13.90;96.73;101321.02;1828875;78;20956;-73
2022/10/28 08:29:39;;;;;;;15.75;12.55;;;;;;;14.01;96.39;101321.94;1828962;78;21413;-73
2022/10/28 08:32:10;;;;;;;13.93;11.97;;;;;;;14.08;95.97;101318.18;1828894;78;20991;-73
2022/10/28 08:34:37;;;;;;;14.07;11.28;;;;;;;14.17;95.76;101323.56;1829404;78;20975;-73
2022/10/28 08:37:05;;;;;;;15.43;12.13;;;;;;;14.25;95.45;101322.82;1828990;78;21955;-73
2022/10/28 08:39:32;;;;;;;15.72;12.20;;;;;;;14.29;95.34;101316.03;1828938;78;21298;-73
2022/10/28 08:42:07;;;;;;;14.85;11.75;;;;;;;14.39;95.51;101321.83;1828872;78;21484;-73
2022/10/28 08:45:04;;;;;;;15.83;11.45;;;;;;;14.45;95.24;101328.19;1827148;78;20980;-73
2022/10/28 08:48:05;;;;;;;14.13;11.05;;;;;;;14.53;95.19;101317.38;1829116;78;20979;-73
2022/10/28 08:50:47;;;;;;;12.75;10.30;;;;;;;14.63;95.01;101326.66;1828523;78;21743;-73
2022/10/28 08:53:45;;;;;;;13.22;10.55;;;;;;;14.77;95.01;101325.23;1829519;78;20994;-73
2022/10/28 08:56:17;;;;;;;13.08;10.10;;;;;;;14.93;95.20;101327.20;1831938;78;21072;-73
2022/10/28 08:58:48;;;;;;;14.40;9.50;;;;;;;15.12;95.40;101314.11;1832324;78;20995;-73
2022/10/28 09:01:20;;;;;;;12.58;9.78;;;;;;;15.24;94.92;101310.12;1832316;78;20979;-73
2022/10/28 09:03:52;;;;;;;13.72;10.53;;;;;;;15.54;94.72;101307.08;1830816;78;21063;-73
2022/10/28 09:06:19;;;;;;;12.50;9.03;;;;;;;15.54;94.72;101307.08;1831850;78;20964;-73
2022/10/28 09:08:49;;;;;;;14.10;9.08;;;;;;;15.67;94.25;101310.06;1831819;78;20971;-73
2022/10/28 09:11:38;;;;;;;11.88;8.15;;;;;;;15.75;93.52;101307.50;1831872;78;20995;-73
2022/10/28 09:14:46;;;;;;;12.75;8.33;;;;;;;15.90;93.61;101309.06;1831170;78;20963;-73
2022/10/28 09:17:20;;;;;;;14.10;8.03;;;;;;;16.08;93.36;101305.59;1831400;78;21092;-73
2022/10/28 09:19:54;;;;;;;8.90;7.70;;;;;;;16.24;92.82;101313.23;1832226;78;21420;-73
2022/10/28 09:22:26;;;;;;;11.65;8.73;;;;;;;16.35;92.35;101304.80;1831886;78;20967;-73
2022/10/28 09:25:04;;;;;;;11.88;7.72;;;;;;;16.52;92.22;101309.30;1831799;78;20987;-73
2022/10/28 09:27:36;;;;;;;14.47;7.67;;;;;;;16.67;91.80;101315.16;1832006;78;20991;-73
2022/10/28 09:30:32;;;;;;;8.95;6.90;;;;;;;16.84;91.83;101322.32;1831896;78;21074;-73
2022/10/28 09:33:22;;;;;;;7.90;6.28;;;;;;;17.04;91.43;101312.55;1831696;78;20883;-73
2022/10/28 09:35:50;;;;;;;;;;;;;;;17.29;91.21;101314.83;1834940;78;20967;-73
2022/10/28 09:38:34;;;;;;;8.93;6.60;;;;;;;17.52;90.38;101312.34;1831892;78;20130;-73
2022/10/28 09:41:21;;;;;;;8.90;6.67;;;;;;;17.74;90.50;101316.92;1832136;78;20955;-73
2022/10/28 09:44:00;;;;;;;10.38;6.92;;;;;;;18.03;90.31;101309.23;1832014;78;21107;-73
2022/10/28 09:46:30;;;;;;;12.95;7.60;;;;;;;18.39;90.36;101315.66;1819563;78;21545;-73
2022/10/28 09:49:02;;;;;;;13.30;7.20;;;;;;;18.71;89.57;101316.53;1831806;78;20967;-73
2022/10/28 09:51:47;;;;;;;10.23;6.80;;;;;;;19.02;89.23;101316.61;1832151;78;20971;-73
2022/10/28 09:54:14;;;;;;;12.00;7.10;;;;;;;19.34;88.69;101307.61;1831618;78;21030;-73
2022/10/28 09:56:42;;;;;;;10.05;7.28;;;;;;;19.66;87.70;101306.66;1832090;78;21085;-73
2022/10/28 09:59:14;;;;;;;13.05;7.55;;;;;;;19.88;86.81;101315.03;1831807;78;21416;-73
2022/10/28 10:01:44;;;;;;;11.15;7.47;;;;;;;20.05;86.03;101317.49;1831589;78;21010;-73
2022/10/28 10:04:21;;;;;;;11.18;7.92;;;;;;;20.27;85.24;101317.00;1831910;78;20964;-73
2022/10/28 10:07:02;;;;;;;10.00;7.55;;;;;;;20.50;84.84;101304.87;1832213;78;21007;-73
2022/10/28 10:09:32;;;;;;;12.05;7.53;;;;;;;20.73;84.30;101302.59;1820776;78;21165;-73
2022/10/28 10:12:09;;;;;;;13.48;7.37;;;;;;;20.98;83.69;101305.83;1832028;78;20980;-73
2022/10/28 10:14:51;;;;;;;11.50;7.62;;;;;;;21.21;83.72;101300.77;1831842;78;20994;-73
2022/10/28 10:17:41;;;;;;;9.40;6.62;;;;;;;21.57;83.51;101297.43;1832170;78;21488;-79
2022/10/28 10:20:17;;;;;;;12.63;6.67;;;;;;;21.76;81.97;101298.34;1831863;78;21265;-74
2022/10/28 10:22:47;;;;;;;12.05;6.35;;;;;;;21.93;81.21;101286.48;1832061;78;21083;-73
2022/10/28 10:25:22;;;;;;;10.03;6.37;;;;;;;22.10;80.66;101286.61;1831689;78;21022;-73
2022/10/28 10:28:02;;;;;;;10.28;5.75;;;;;;;22.27;80.18;101283.12;1831826;78;20979;-73
2022/10/28 10:30:34;;;;;;;11.45;5.97;;;;;;;22.48;79.37;101282.55;1832023;78;20967;-73
2022/10/28 10:33:03;;;;;;;9.38;5.80;;;;;;;22.66;79.03;101281.17;1831908;78;21010;-73
2022/10/28 10:35:35;;;;;;;8.58;5.03;;;;;;;22.95;78.78;101275.50;1832169;78;21091;-73
2022/10/28 10:38:05;;;;;;;7.37;4.37;;;;;;;23.11;77.75;101274.73;1831755;78;21445;-73
2022/10/28 10:40:46;;;;;;;6.60;4.20;;;;;;;23.31;77.28;101277.71;1832099;78;20995;-73
2022/10/28 10:43:34;;;;;;;7.45;4.40;;;;;;;23.56;76.84;101273.98;1831505;78;21003;-73
2022/10/28 10:46:16;;;;;;;8.65;3.92;;;;;;;23.78;75.85;101268.69;1832202;78;20975;-73
2022/10/28 10:48:44;;;;;;;5.72;3.30;;;;;;;23.98;75.00;101276.95;1831739;78;21383;-73
2022/10/28 10:51:22;;;;;;;7.35;3.45;;;;;;;24.01;74.16;101263.32;1831682;78;21452;-73
2022/10/28 10:53:53;;;;;;;7.80;3.25;;;;;;;24.16;73.31;101258.05;1830725;78;20998;-73
2022/10/28 10:56:32;;;;;;;6.42;2.98;;;;;;;24.26;72.45;101258.17;1829102;78;20971;-73
2022/10/28 10:59:04;;;;;;;6.80;3.10;;;;;;;24.18;71.90;101253.92;1829692;78;20979;-73
2022/10/28 11:01:35;;;;;;;5.22;3.15;;;;;;;24.09;70.63;101247.48;1829210;78;21148;-73
2022/10/28 11:04:06;;;;;;;6.22;3.40;;;;;;;23.82;70.26;101246.53;1829481;78;21022;-73
2022/10/28 11:06:40;;;;;;;7.10;3.60;;;;;;;23.44;69.85;101250.84;1829120;78;20995;-73
2022/10/28 11:09:35;;;;;;;6.00;3.47;;;;;;;23.12;70.09;101244.83;1829412;78;21007;-73
2022/10/28 11:12:16;;;;;;;7.50;3.27;;;;;;;22.89;70.10;101248.73;1829106;78;20994;-73
2022/10/28 11:14:57;;;;;;;7.47;3.75;;;;;;;22.65;70.36;101247.41;1807210;78;22026;-73
2022/10/28 11:17:30;;;;;;;6.83;3.75;;;;;;;22.69;70.11;101250.70;1829085;78;21045;-74
2022/10/28 11:20:00;;;;;;;5.58;3.70;;;;;;;23.07;70.33;101243.84;1829486;78;21429;-73
2022/10/28 11:22:57;;;;;;;6.33;3.37;;;;;;;23.44;69.73;101245.00;1829213;78;21332;-73
2022/10/28 11:25:37;;;;;;;5.72;3.55;;;;;;;23.71;69.47;101237.16;1828252;78;21198;-73
2022/10/28 11:28:33;;;;;;;4.85;3.55;;;;;;;24.17;69.28;101231.66;1829074;78;21116;-73
2022/10/28 11:31:23;;;;;;;7.62;3.40;;;;;;;24.44;68.37;101225.90;1829211;78;21042;-74
2022/10/28 11:34:17;;;;;;;8.25;3.62;;;;;;;24.54;67.61;101217.09;1827448;78;21528;-73
2022/10/28 11:37:08;;;;;;;6.87;3.58;;;;;;;24.74;67.64;101218.09;1829175;78;20979;-73
2022/10/28 11:39:56;;;;;;;7.50;3.60;;;;;;;24.86;67.54;101223.79;1828645;78;20995;-73